createdAt,value
2022-07-31T00:00:29.788Z,94.10
2022-07-31T00:02:59.051Z,94.00
2022-07-31T00:05:28.746Z,93.90
2022-07-31T00:07:57.228Z,93.90
2022-07-31T00:10:26.265Z,94.00
2022-07-31T00:12:56.124Z,94.40
2022-07-31T00:15:24.659Z,94.60
2022-07-31T00:17:53.126Z,95.20
2022-07-31T00:20:21.777Z,95.50
2022-07-31T00:22:50.689Z,95.80
2022-07-31T00:25:20.151Z,95.80
2022-07-31T00:27:48.654Z,96.10
2022-07-31T00:30:18.669Z,96.30
2022-07-31T00:32:47.203Z,95.70
2022-07-31T00:35:17.722Z,95.10
2022-07-31T00:37:46.288Z,95.50
2022-07-31T00:40:17.482Z,96.40
2022-07-31T00:42:46.325Z,96.90
2022-07-31T00:45:15.093Z,96.60
2022-07-31T00:47:46.309Z,96.30
2022-07-31T00:50:14.941Z,96.10
2022-07-31T00:52:43.662Z,95.90
2022-07-31T00:55:12.302Z,95.90
2022-07-31T00:57:41.119Z,95.90
2022-07-31T01:00:10.790Z,96.20
2022-07-31T01:02:46.603Z,96.60
2022-07-31T01:05:18.992Z,97.10
2022-07-31T01:07:49.007Z,97.30
2022-07-31T01:10:27.032Z,97.40
2022-07-31T01:12:58.348Z,97.20
2022-07-31T01:15:28.632Z,97.30
2022-07-31T01:17:58.032Z,97.60
2022-07-31T01:20:30.441Z,97.50
2022-07-31T01:23:18.646Z,97.80
2022-07-31T01:26:19.671Z,97.80
2022-07-31T01:29:11.931Z,97.90
2022-07-31T01:31:47.630Z,97.90
2022-07-31T01:34:24.837Z,97.50
2022-07-31T01:37:06.928Z,97.10
2022-07-31T01:39:44.692Z,96.90
2022-07-31T01:42:17.888Z,96.20
2022-07-31T01:44:54.822Z,96.10
2022-07-31T01:47:26.529Z,96.30
2022-07-31T01:49:57.397Z,96.60
2022-07-31T01:52:29.799Z,97.10
2022-07-31T01:54:59.873Z,97.50
2022-07-31T01:57:30.115Z,97.90
2022-07-31T02:00:06.472Z,97.90
2022-07-31T02:02:57.484Z,97.80
2022-07-31T02:05:32.182Z,97.60
2022-07-31T02:08:00.969Z,97.70
2022-07-31T02:10:33.837Z,97.90
2022-07-31T02:13:04.641Z,97.90
2022-07-31T02:15:36.047Z,98.00
2022-07-31T02:18:06.173Z,97.70
2022-07-31T02:20:35.024Z,97.60
2022-07-31T02:23:04.267Z,97.70
2022-07-31T02:25:35.702Z,98.10
2022-07-31T02:28:10.235Z,98.20
2022-07-31T02:30:43.505Z,98.00
2022-07-31T02:33:18.009Z,98.10
2022-07-31T02:35:50.545Z,98.10
2022-07-31T02:38:23.316Z,98.30
2022-07-31T02:41:01.209Z,98.40
2022-07-31T02:43:33.057Z,98.80
2022-07-31T02:46:09.727Z,98.50
2022-07-31T02:48:38.826Z,98.50
2022-07-31T02:51:10.774Z,98.30
2022-07-31T02:53:39.901Z,98.50
2022-07-31T02:56:12.225Z,98.50
2022-07-31T02:58:43.064Z,98.70
2022-07-31T03:01:23.784Z,99.40
2022-07-31T03:03:52.509Z,99.40
2022-07-31T03:06:21.148Z,99.40
2022-07-31T03:08:49.687Z,99.50
2022-07-31T03:11:23.416Z,99.60
2022-07-31T03:13:54.820Z,99.40
2022-07-31T03:16:25.529Z,99.80
2022-07-31T03:18:55.058Z,99.20
2022-07-31T03:21:24.642Z,99.20
2022-07-31T03:23:53.544Z,98.70
2022-07-31T03:26:24.382Z,99.10
2022-07-31T03:28:52.846Z,99.50
2022-07-31T03:31:21.449Z,99.50
2022-07-31T03:33:51.264Z,99.50
2022-07-31T03:36:19.743Z,99.60
2022-07-31T03:38:50.589Z,99.10
2022-07-31T03:41:30.657Z,99.00
2022-07-31T03:43:59.577Z,99.10
2022-07-31T03:46:28.317Z,99.00
2022-07-31T03:48:58.588Z,99.50
2022-07-31T03:51:28.861Z,99.60
2022-07-31T03:53:57.669Z,99.90
2022-07-31T03:56:53.781Z,99.90
2022-07-31T03:59:24.258Z,99.90
2022-07-31T04:02:10.268Z,99.90
2022-07-31T04:05:09.528Z,99.90
2022-07-31T04:07:39.486Z,99.90
2022-07-31T04:10:09.373Z,99.90
2022-07-31T04:12:37.975Z,99.90
2022-07-31T04:15:07.688Z,99.90
2022-07-31T04:17:38.317Z,99.90
2022-07-31T04:20:11.355Z,99.90
2022-07-31T04:22:41.322Z,99.90
2022-07-31T04:25:18.441Z,99.90
2022-07-31T04:27:50.377Z,99.90
2022-07-31T04:30:19.155Z,99.90
2022-07-31T04:32:48.695Z,99.90
2022-07-31T04:35:23.504Z,99.90
2022-07-31T04:37:52.565Z,99.90
2022-07-31T04:40:23.078Z,99.90
2022-07-31T04:42:51.599Z,99.60
2022-07-31T04:45:20.264Z,99.50
2022-07-31T04:47:49.043Z,99.60
2022-07-31T04:50:17.794Z,99.60
2022-07-31T04:52:58.620Z,99.90
2022-07-31T04:55:30.713Z,99.60
2022-07-31T04:58:00.681Z,99.40
2022-07-31T05:00:29.689Z,99.30
2022-07-31T05:02:58.358Z,99.30
2022-07-31T05:05:26.961Z,99.30
2022-07-31T05:07:55.468Z,99.40
2022-07-31T05:10:49.961Z,99.50
2022-07-31T05:13:19.338Z,99.50
2022-07-31T05:15:48.369Z,99.90
2022-07-31T05:18:16.883Z,99.90
2022-07-31T05:21:04.169Z,99.90
2022-07-31T05:23:55.879Z,99.90
2022-07-31T05:26:38.868Z,99.90
2022-07-31T05:29:07.698Z,99.80
2022-07-31T05:31:36.408Z,99.60
2022-07-31T05:34:04.993Z,99.60
2022-07-31T05:36:33.876Z,99.30
2022-07-31T05:39:02.398Z,99.60
2022-07-31T05:41:44.164Z,99.00
2022-07-31T05:44:31.361Z,99.10
2022-07-31T05:49:29.074Z,98.50
2022-07-31T05:52:01.549Z,97.90
2022-07-31T05:54:30.536Z,96.90
2022-07-31T05:57:33.598Z,97.10
2022-07-31T06:00:04.485Z,97.40
2022-07-31T06:02:40.590Z,97.80
2022-07-31T06:05:41.703Z,98.00
2022-07-31T06:08:11.752Z,98.50
2022-07-31T06:10:43.902Z,98.10
2022-07-31T06:13:14.842Z,98.70
2022-07-31T06:15:49.445Z,98.60
2022-07-31T06:18:19.218Z,98.70
2022-07-31T06:20:47.927Z,98.70
2022-07-31T06:23:23.095Z,99.00
2022-07-31T06:26:07.337Z,99.10
2022-07-31T06:28:48.931Z,99.20
2022-07-31T06:31:19.565Z,99.40
2022-07-31T06:33:48.819Z,99.80
2022-07-31T06:36:20.672Z,99.90
2022-07-31T06:38:57.771Z,99.90
2022-07-31T06:41:48.383Z,99.90
2022-07-31T06:44:34.746Z,99.90
2022-07-31T06:47:23.939Z,99.90
2022-07-31T06:49:53.038Z,99.90
2022-07-31T06:52:21.753Z,99.90
2022-07-31T06:54:50.392Z,99.90
2022-07-31T06:57:18.984Z,99.90
2022-07-31T06:59:48.906Z,99.90
2022-07-31T07:02:17.476Z,99.90
2022-07-31T07:05:04.466Z,99.90
2022-07-31T07:07:36.967Z,99.90
2022-07-31T07:10:08.093Z,99.90
2022-07-31T07:13:08.610Z,99.90
2022-07-31T07:15:39.491Z,99.90
2022-07-31T07:18:08.268Z,99.90
2022-07-31T07:20:51.275Z,99.90
2022-07-31T07:23:20.581Z,99.90
2022-07-31T07:25:56.023Z,99.90
2022-07-31T07:28:30.978Z,99.70
2022-07-31T07:31:03.993Z,99.70
2022-07-31T07:33:40.132Z,99.90
2022-07-31T07:36:23.452Z,99.40
2022-07-31T07:39:03.515Z,99.30
2022-07-31T07:41:34.116Z,99.20
2022-07-31T07:44:03.257Z,98.70
2022-07-31T07:46:33.790Z,98.30
2022-07-31T07:49:06.813Z,98.00
2022-07-31T07:51:35.406Z,98.10
2022-07-31T07:54:24.128Z,98.00
2022-07-31T07:57:16.346Z,98.50
2022-07-31T08:00:06.660Z,98.40
2022-07-31T08:03:02.679Z,98.10
2022-07-31T08:05:41.571Z,97.90
2022-07-31T08:08:11.526Z,97.80
2022-07-31T08:11:04.937Z,97.20
2022-07-31T08:13:53.005Z,96.60
2022-07-31T08:16:24.573Z,96.10
2022-07-31T08:18:58.256Z,95.90
2022-07-31T08:21:27.560Z,95.40
2022-07-31T08:23:56.605Z,95.00
2022-07-31T08:26:28.143Z,95.00
2022-07-31T08:28:58.014Z,95.00
2022-07-31T08:31:28.858Z,95.10
2022-07-31T08:34:31.231Z,94.40
2022-07-31T08:38:02.208Z,93.60
2022-07-31T08:39:52.025Z,94.40
2022-07-31T08:42:20.714Z,94.70
2022-07-31T08:44:49.251Z,94.70
2022-07-31T08:47:22.372Z,94.50
2022-07-31T08:49:54.914Z,94.50
2022-07-31T08:52:25.091Z,95.00
2022-07-31T08:55:07.342Z,95.10
2022-07-31T08:57:37.083Z,94.00
2022-07-31T09:00:07.637Z,92.90
2022-07-31T09:02:36.308Z,92.90
2022-07-31T09:05:21.837Z,92.80
2022-07-31T09:07:51.050Z,92.80
2022-07-31T09:10:24.934Z,92.80
2022-07-31T09:12:54.443Z,92.90
2022-07-31T09:15:25.709Z,92.90
2022-07-31T09:17:55.135Z,93.00
2022-07-31T09:20:27.719Z,93.30
2022-07-31T09:23:06.850Z,93.20
2022-07-31T09:25:37.595Z,93.40
2022-07-31T09:28:07.980Z,93.70
2022-07-31T09:30:56.109Z,93.90
2022-07-31T09:33:46.005Z,93.70
2022-07-31T09:36:34.023Z,93.50
2022-07-31T09:39:26.807Z,92.80
2022-07-31T09:42:16.569Z,92.60
2022-07-31T09:45:04.185Z,92.90
2022-07-31T09:47:35.252Z,92.50
2022-07-31T09:50:08.548Z,91.80
2022-07-31T09:52:38.708Z,91.80
2022-07-31T09:55:16.536Z,91.40
2022-07-31T09:57:54.568Z,91.00
2022-07-31T10:00:24.117Z,91.30
2022-07-31T10:02:55.650Z,91.40
2022-07-31T10:05:29.267Z,90.90
2022-07-31T10:08:03.542Z,90.60
2022-07-31T10:10:51.144Z,90.60
2022-07-31T10:13:37.529Z,91.30
2022-07-31T10:16:10.176Z,90.90
2022-07-31T10:18:52.231Z,90.60
2022-07-31T10:21:43.449Z,90.20
2022-07-31T10:24:22.893Z,90.60
2022-07-31T10:27:01.501Z,91.00
2022-07-31T10:29:32.945Z,90.80
2022-07-31T10:32:04.664Z,89.90
2022-07-31T10:34:36.607Z,89.90
2022-07-31T10:37:27.641Z,89.70
2022-07-31T10:40:41.247Z,88.80
2022-07-31T10:43:20.997Z,90.30
2022-07-31T10:46:29.876Z,90.20
2022-07-31T10:49:43.615Z,90.80
2022-07-31T10:52:41.945Z,91.20
2022-07-31T10:55:17.831Z,91.50
2022-07-31T10:58:19.829Z,93.10
2022-07-31T11:01:06.817Z,94.60
2022-07-31T11:03:55.948Z,95.20
2022-07-31T11:06:46.814Z,95.50
2022-07-31T11:09:51.181Z,95.60
2022-07-31T11:12:39.136Z,95.80
2022-07-31T11:15:26.700Z,95.60
2022-07-31T11:18:27.769Z,95.30
2022-07-31T11:21:38.114Z,95.00
2022-07-31T11:24:03.285Z,94.80
2022-07-31T11:26:41.568Z,94.50
2022-07-31T11:30:01.342Z,94.40
2022-07-31T11:32:16.236Z,94.10
2022-07-31T11:34:50.320Z,93.90
2022-07-31T11:37:20.650Z,93.20
2022-07-31T11:39:51.621Z,93.00
2022-07-31T11:42:26.490Z,92.70
2022-07-31T11:45:11.088Z,93.20
2022-07-31T11:48:11.096Z,93.40
2022-07-31T11:50:42.048Z,92.70
2022-07-31T11:53:10.898Z,92.80
2022-07-31T11:55:49.986Z,92.30
2022-07-31T11:58:21.016Z,92.00
2022-07-31T12:00:51.044Z,91.90
2022-07-31T12:03:22.360Z,91.70
2022-07-31T12:05:52.393Z,91.80
2022-07-31T12:08:21.816Z,91.80
2022-07-31T12:10:52.827Z,92.00
2022-07-31T12:13:22.938Z,91.80
2022-07-31T12:15:59.408Z,91.60
2022-07-31T12:18:30.808Z,91.50
2022-07-31T12:21:01.412Z,91.70
2022-07-31T12:23:42.005Z,91.70
2022-07-31T12:26:14.521Z,91.50
2022-07-31T12:28:44.019Z,91.10
2022-07-31T12:31:12.502Z,90.60
2022-07-31T12:33:45.797Z,90.50
2022-07-31T12:36:16.322Z,90.40
2022-07-31T12:38:48.253Z,90.20
2022-07-31T12:41:17.984Z,90.00
2022-07-31T12:43:51.801Z,88.00
2022-07-31T12:46:36.321Z,87.40
2022-07-31T12:49:06.713Z,86.40
2022-07-31T12:51:44.722Z,87.10
2022-07-31T12:54:25.799Z,86.80
2022-07-31T12:56:57.007Z,86.40
2022-07-31T12:59:25.576Z,85.30
2022-07-31T13:01:54.122Z,84.50
2022-07-31T13:04:24.162Z,84.10
2022-07-31T13:06:53.356Z,84.70
2022-07-31T13:09:21.833Z,83.10
2022-07-31T13:11:55.872Z,81.70
2022-07-31T13:14:26.360Z,80.10
2022-07-31T13:16:55.639Z,77.20
2022-07-31T13:19:25.583Z,75.30
2022-07-31T13:21:56.955Z,74.40
2022-07-31T13:24:26.685Z,74.10
2022-07-31T13:26:55.154Z,72.70
2022-07-31T13:29:23.637Z,70.60
2022-07-31T13:31:52.385Z,68.60
2022-07-31T13:34:21.251Z,68.20
2022-07-31T13:36:51.093Z,67.10
2022-07-31T13:39:19.593Z,67.00
2022-07-31T13:41:48.047Z,66.10
2022-07-31T13:44:17.051Z,64.70
2022-07-31T13:46:46.671Z,64.20
2022-07-31T13:49:15.770Z,64.70
2022-07-31T13:51:44.307Z,63.90
2022-07-31T13:54:14.465Z,63.00
2022-07-31T13:56:43.746Z,63.20
2022-07-31T13:59:13.834Z,62.10
2022-07-31T14:02:03.661Z,62.10
2022-07-31T14:04:38.356Z,60.00
2022-07-31T14:07:08.332Z,57.70
2022-07-31T14:09:38.692Z,57.30
2022-07-31T14:12:15.567Z,57.10
2022-07-31T14:14:43.985Z,56.70
2022-07-31T14:17:12.509Z,57.30
2022-07-31T14:19:44.395Z,58.20
2022-07-31T14:22:14.496Z,57.60
2022-07-31T14:24:50.038Z,57.40
2022-07-31T14:27:21.560Z,56.60
2022-07-31T14:29:50.228Z,54.90
2022-07-31T14:32:19.419Z,53.90
2022-07-31T14:34:48.124Z,54.30
2022-07-31T14:37:16.589Z,55.10
2022-07-31T14:39:46.483Z,55.40
2022-07-31T14:42:15.061Z,56.10
2022-07-31T14:44:51.436Z,55.00
2022-07-31T14:47:19.928Z,54.70
2022-07-31T14:50:06.760Z,54.60
2022-07-31T14:52:37.163Z,54.20
2022-07-31T14:55:08.023Z,54.40
2022-07-31T14:57:36.578Z,54.50
2022-07-31T15:00:12.485Z,54.70
2022-07-31T15:02:41.238Z,56.10
2022-07-31T15:06:39.557Z,56.10
2022-07-31T15:08:03.682Z,57.00
2022-07-31T15:10:33.992Z,56.20
2022-07-31T15:13:02.531Z,55.40
2022-07-31T15:15:33.821Z,55.00
2022-07-31T15:18:02.542Z,55.40
2022-07-31T15:20:32.770Z,56.20
2022-07-31T15:23:01.860Z,57.50
2022-07-31T15:25:30.878Z,57.80
2022-07-31T15:28:01.666Z,58.20
2022-07-31T15:30:30.055Z,57.90
2022-07-31T15:32:58.540Z,57.30
2022-07-31T15:35:27.243Z,57.70
2022-07-31T15:37:55.674Z,57.70
2022-07-31T15:40:24.069Z,57.50
2022-07-31T15:42:52.760Z,56.80
2022-07-31T15:45:22.742Z,55.60
2022-07-31T15:47:51.265Z,55.80
2022-07-31T15:50:20.597Z,56.20
2022-07-31T15:52:49.310Z,56.70
2022-07-31T15:55:19.444Z,57.80
2022-07-31T15:57:48.037Z,57.10
2022-07-31T16:00:17.148Z,56.50
2022-07-31T16:02:47.253Z,57.20
2022-07-31T16:05:21.330Z,57.50
2022-07-31T16:08:30.614Z,58.50
2022-07-31T16:10:39.360Z,58.60
2022-07-31T16:13:08.210Z,58.00
2022-07-31T16:15:36.735Z,58.00
2022-07-31T16:18:08.666Z,58.50
2022-07-31T16:20:46.610Z,59.10
2022-07-31T16:23:18.818Z,58.90
2022-07-31T16:25:47.426Z,59.70
2022-07-31T16:28:15.860Z,58.90
2022-07-31T16:30:45.807Z,59.60
2022-07-31T16:33:15.924Z,59.60
2022-07-31T16:35:44.489Z,59.30
2022-07-31T16:38:12.926Z,60.20
2022-07-31T16:40:42.378Z,59.20
2022-07-31T16:43:47.375Z,60.00
2022-07-31T16:45:59.377Z,59.10
2022-07-31T16:48:29.240Z,58.40
2022-07-31T16:50:57.814Z,58.60
2022-07-31T16:54:11.218Z,59.40
2022-07-31T16:56:16.807Z,59.70
2022-07-31T16:58:45.339Z,61.20
2022-07-31T17:01:57.855Z,61.20
2022-07-31T17:04:04.738Z,61.40
2022-07-31T17:06:36.459Z,60.00
2022-07-31T17:09:16.319Z,61.20
2022-07-31T17:11:48.346Z,61.00
2022-07-31T17:14:17.797Z,61.90
2022-07-31T17:16:48.823Z,62.20
2022-07-31T17:19:41.712Z,62.50
2022-07-31T17:22:11.146Z,65.20
2022-07-31T17:24:40.500Z,66.40
2022-07-31T17:27:09.626Z,66.20
2022-07-31T17:29:39.414Z,66.00
2022-07-31T17:32:08.407Z,67.60
2022-07-31T17:34:44.966Z,70.20
2022-07-31T17:37:14.039Z,72.00
2022-07-31T17:39:42.643Z,74.70
2022-07-31T17:42:11.223Z,76.80
2022-07-31T17:44:40.530Z,77.50
2022-07-31T17:47:15.087Z,77.50
2022-07-31T17:49:45.229Z,74.90
2022-07-31T17:52:14.332Z,76.10
2022-07-31T17:54:43.154Z,75.60
2022-07-31T17:57:11.645Z,78.80
2022-07-31T17:59:41.064Z,78.10
2022-07-31T18:02:09.984Z,78.20
2022-07-31T18:04:39.150Z,79.40
2022-07-31T18:07:09.813Z,81.30
2022-07-31T18:09:38.289Z,82.00
2022-07-31T18:12:10.858Z,81.00
2022-07-31T18:14:42.817Z,79.30
2022-07-31T18:17:11.315Z,79.30
2022-07-31T18:19:39.786Z,79.80
2022-07-31T18:22:09.648Z,80.30
2022-07-31T18:24:38.245Z,80.80
2022-07-31T18:27:07.631Z,81.10
2022-07-31T18:29:36.157Z,81.30
2022-07-31T18:32:05.199Z,82.00
2022-07-31T18:34:33.970Z,82.40
2022-07-31T18:37:02.486Z,82.70
2022-07-31T18:39:32.387Z,82.40
2022-07-31T18:42:00.858Z,81.80
2022-07-31T18:44:29.908Z,81.60
2022-07-31T18:46:58.386Z,81.90
2022-07-31T18:51:02.175Z,82.80
2022-07-31T18:52:15.479Z,83.50
2022-07-31T18:54:45.547Z,84.40
2022-07-31T18:57:14.057Z,85.00
2022-07-31T18:59:42.508Z,85.90
2022-07-31T19:02:12.246Z,87.60
2022-07-31T19:04:40.944Z,89.40
2022-07-31T19:07:10.232Z,90.40
2022-07-31T19:09:39.001Z,91.00
2022-07-31T19:12:10.128Z,91.70
2022-07-31T19:14:40.003Z,92.10
2022-07-31T19:17:08.702Z,92.50
2022-07-31T19:19:54.270Z,93.10
2022-07-31T19:22:23.638Z,94.00
2022-07-31T19:24:52.235Z,94.70
2022-07-31T19:27:22.340Z,94.90
2022-07-31T19:30:13.901Z,95.20
2022-07-31T19:32:42.658Z,95.40
2022-07-31T19:35:11.254Z,95.50
2022-07-31T19:37:39.737Z,95.50
2022-07-31T19:40:09.153Z,95.30
2022-07-31T19:42:39.514Z,95.50
2022-07-31T19:45:08.814Z,95.70
2022-07-31T19:47:37.275Z,96.00
2022-07-31T19:50:07.521Z,95.30
2022-07-31T19:52:36.087Z,94.90
2022-07-31T19:55:04.618Z,94.90
2022-07-31T19:57:33.165Z,94.80
2022-07-31T20:00:03.102Z,94.70
2022-07-31T20:02:32.708Z,94.50
2022-07-31T20:05:01.169Z,95.40
2022-07-31T20:07:32.734Z,97.00
2022-07-31T20:10:02.185Z,97.60
2022-07-31T20:12:30.700Z,98.10
2022-07-31T20:14:59.146Z,97.60
2022-07-31T20:17:29.323Z,97.40
2022-07-31T20:20:12.631Z,97.90
2022-07-31T20:22:44.625Z,98.30
2022-07-31T20:25:20.431Z,98.40
2022-07-31T20:27:50.080Z,98.70
2022-07-31T20:30:22.068Z,99.60
2022-07-31T20:32:53.094Z,99.90
2022-07-31T20:35:31.083Z,99.80
2022-07-31T20:38:15.826Z,99.90
2022-07-31T20:40:51.159Z,99.60
2022-07-31T20:43:24.414Z,99.60
2022-07-31T20:45:53.287Z,99.40
2022-07-31T20:48:26.132Z,99.30
2022-07-31T20:50:54.658Z,99.40
2022-07-31T20:53:23.194Z,99.00
2022-07-31T20:55:51.802Z,98.90
2022-07-31T20:58:21.583Z,98.80
2022-07-31T21:00:51.577Z,98.60
2022-07-31T21:03:20.930Z,98.80
2022-07-31T21:05:51.140Z,98.80
2022-07-31T21:08:22.191Z,98.60
2022-07-31T21:10:51.638Z,98.60
2022-07-31T21:13:20.295Z,98.80
2022-07-31T21:15:51.413Z,98.80
2022-07-31T21:18:21.251Z,99.40
2022-07-31T21:20:53.712Z,99.20
2022-07-31T21:23:23.722Z,99.40
2022-07-31T21:25:52.751Z,99.60
2022-07-31T21:28:22.126Z,99.90
2022-07-31T21:30:51.119Z,99.90
2022-07-31T21:33:19.913Z,99.90
2022-07-31T21:35:48.613Z,99.90
2022-07-31T21:38:19.899Z,99.90
2022-07-31T21:40:49.064Z,99.90
2022-07-31T21:43:22.248Z,99.90
2022-07-31T21:45:57.320Z,99.90
2022-07-31T21:48:32.279Z,99.90
2022-07-31T21:51:01.550Z,99.90
2022-07-31T21:53:31.397Z,99.90
2022-07-31T21:56:04.095Z,99.90
2022-07-31T21:58:32.659Z,99.90
2022-07-31T22:01:01.174Z,99.90
2022-07-31T22:03:29.763Z,99.90
2022-07-31T22:06:15.704Z,99.90
2022-07-31T22:08:45.679Z,99.90
2022-07-31T22:11:14.165Z,99.90
2022-07-31T22:13:42.613Z,99.90
2022-07-31T22:16:11.319Z,99.90
2022-07-31T22:18:40.422Z,99.90
2022-07-31T22:21:09.854Z,99.90
2022-07-31T22:23:38.901Z,99.90
2022-07-31T22:26:09.283Z,99.90
2022-07-31T22:28:38.284Z,99.90
2022-07-31T22:31:07.307Z,99.90
2022-07-31T22:33:35.928Z,99.90
2022-07-31T22:36:07.187Z,99.90
2022-07-31T22:38:38.152Z,99.90
2022-07-31T22:41:08.242Z,99.90
2022-07-31T22:44:12.552Z,99.90
2022-07-31T22:46:26.122Z,99.90
2022-07-31T22:48:55.672Z,99.90
2022-07-31T22:51:24.429Z,99.90
2022-07-31T22:53:52.851Z,99.90
2022-07-31T22:56:24.469Z,99.90
2022-07-31T22:58:52.943Z,99.90
2022-07-31T23:01:21.432Z,99.90
2022-07-31T23:03:49.927Z,99.90
2022-07-31T23:06:32.068Z,99.90
2022-07-31T23:09:02.284Z,99.90
2022-07-31T23:11:32.133Z,99.90
2022-07-31T23:14:00.994Z,99.90
2022-07-31T23:16:29.455Z,99.90
2022-07-31T23:18:58.193Z,99.90
2022-07-31T23:21:26.698Z,99.90
2022-07-31T23:23:55.368Z,99.90
2022-07-31T23:26:26.317Z,99.90
2022-07-31T23:28:57.023Z,99.90
2022-07-31T23:31:25.628Z,99.90
2022-07-31T23:33:56.097Z,99.90
2022-07-31T23:36:28.100Z,99.90
2022-07-31T23:38:56.655Z,99.90
2022-07-31T23:41:42.689Z,99.90
2022-07-31T23:44:12.685Z,99.90
2022-07-31T23:46:47.169Z,99.90
2022-07-31T23:49:18.083Z,99.90
2022-07-31T23:51:46.619Z,99.90
2022-07-31T23:54:15.851Z,99.90
2022-07-31T23:56:44.309Z,99.90
2022-07-31T23:59:14.110Z,99.90
